createdAt,value
2018-07-11T00:00:01.346Z,12.10
2018-07-11T00:02:29.687Z,12.10
2018-07-11T00:05:00.628Z,12.00
2018-07-11T00:12:33.445Z,11.70
2018-07-11T00:15:01.624Z,11.60
2018-07-11T00:19:57.700Z,11.50
2018-07-11T00:22:26.210Z,11.50
2018-07-11T00:24:54.373Z,11.40
2018-07-11T00:27:22.655Z,11.40
2018-07-11T00:29:50.777Z,11.40
2018-07-11T00:32:18.944Z,11.40
2018-07-11T00:34:47.105Z,11.30
2018-07-11T00:37:15.386Z,11.30
2018-07-11T00:39:43.483Z,11.30
2018-07-11T00:42:11.655Z,11.20
2018-07-11T00:44:40.340Z,11.20
2018-07-11T00:47:08.534Z,11.20
2018-07-11T00:49:36.718Z,11.10
2018-07-11T00:52:04.935Z,11.10
2018-07-11T00:54:33.135Z,11.00
2018-07-11T00:57:01.851Z,11.00
2018-07-11T00:59:31.946Z,11.00
2018-07-11T01:02:03.905Z,11.00
2018-07-11T01:04:32.325Z,10.90
2018-07-11T01:07:02.204Z,10.90
2018-07-11T01:09:31.797Z,10.90
2018-07-11T01:12:00.058Z,10.80
2018-07-11T01:14:28.427Z,10.80
2018-07-11T01:16:56.606Z,10.80
2018-07-11T01:19:24.803Z,10.80
2018-07-11T01:22:01.715Z,10.80
2018-07-11T01:24:30.763Z,10.70
2018-07-11T01:26:59.625Z,10.70
2018-07-11T01:29:27.844Z,10.70
2018-07-11T01:34:23.939Z,10.70
2018-07-11T01:36:52.404Z,10.70
2018-07-11T01:39:20.575Z,10.70
2018-07-11T01:41:48.756Z,10.80
2018-07-11T01:44:16.953Z,10.80
2018-07-11T01:46:48.356Z,10.90
2018-07-11T01:49:16.593Z,11.00
2018-07-11T01:51:56.751Z,11.00
2018-07-11T01:54:25.307Z,11.10
2018-07-11T01:57:06.314Z,11.20
2018-07-11T01:59:36.045Z,11.30
2018-07-11T02:02:04.704Z,11.30
2018-07-11T02:04:34.728Z,11.40
2018-07-11T02:07:02.898Z,11.40
2018-07-11T02:09:31.438Z,11.40
2018-07-11T02:11:59.590Z,11.40
2018-07-11T02:14:27.956Z,11.40
2018-07-11T02:16:56.148Z,11.40
2018-07-11T02:19:24.278Z,11.40
2018-07-11T02:21:52.744Z,11.50
2018-07-11T02:24:22.870Z,11.50
2018-07-11T02:26:51.149Z,11.50
2018-07-11T02:29:19.351Z,11.50
2018-07-11T02:31:47.467Z,11.60
2018-07-11T02:34:15.663Z,11.60
2018-07-11T02:36:43.805Z,11.70
2018-07-11T02:39:11.932Z,11.70
2018-07-11T02:41:40.079Z,11.80
2018-07-11T02:44:08.202Z,11.90
2018-07-11T02:46:41.806Z,12.00
2018-07-11T02:49:09.966Z,12.00
2018-07-11T02:51:38.126Z,12.10
2018-07-11T02:54:06.281Z,12.10
2018-07-11T02:56:34.404Z,12.10
2018-07-11T02:59:02.542Z,12.10
2018-07-11T03:01:30.722Z,12.10
2018-07-11T03:03:58.886Z,12.10
2018-07-11T03:06:27.047Z,12.20
2018-07-11T03:08:55.162Z,12.20
2018-07-11T03:11:23.307Z,12.20
2018-07-11T03:13:51.503Z,12.30
2018-07-11T03:16:19.612Z,12.30
2018-07-11T03:18:47.710Z,12.40
2018-07-11T03:21:15.834Z,12.40
2018-07-11T03:23:43.949Z,12.50
2018-07-11T03:26:12.058Z,12.60
2018-07-11T03:28:40.217Z,12.60
2018-07-11T03:31:08.388Z,12.70
2018-07-11T03:33:36.494Z,12.80
2018-07-11T03:36:04.627Z,12.90
2018-07-11T03:38:32.767Z,12.90
2018-07-11T03:41:00.874Z,13.00
2018-07-11T03:43:28.973Z,13.00
2018-07-11T03:45:57.094Z,13.10
2018-07-11T03:48:25.319Z,13.20
2018-07-11T03:50:53.469Z,13.20
2018-07-11T03:53:21.578Z,13.30
2018-07-11T03:55:49.658Z,13.30
2018-07-11T03:58:17.770Z,13.30
2018-07-11T04:00:45.854Z,13.40
2018-07-11T04:03:13.998Z,13.50
2018-07-11T04:05:42.107Z,13.50
2018-07-11T04:08:10.219Z,13.50
2018-07-11T04:10:38.333Z,13.50
2018-07-11T04:13:13.714Z,13.50
2018-07-11T04:15:41.813Z,13.50
2018-07-11T04:18:14.406Z,13.60
2018-07-11T04:20:42.641Z,13.60
2018-07-11T04:23:10.751Z,13.70
2018-07-11T04:25:38.844Z,13.70
2018-07-11T04:28:06.950Z,13.70
2018-07-11T04:30:35.082Z,13.70
2018-07-11T04:33:03.238Z,13.80
2018-07-11T04:35:31.372Z,13.80
2018-07-11T04:37:59.578Z,13.80
2018-07-11T04:40:27.714Z,13.90
2018-07-11T04:45:24.462Z,13.90
2018-07-11T04:50:20.638Z,13.90
2018-07-11T04:52:48.793Z,14.00
2018-07-11T04:55:16.948Z,14.10
2018-07-11T04:57:45.159Z,14.10
2018-07-11T05:00:13.298Z,14.10
2018-07-11T05:05:09.389Z,14.20
2018-07-11T05:07:37.564Z,14.20
2018-07-11T05:10:05.739Z,14.20
2018-07-11T05:12:33.859Z,14.30
2018-07-11T05:15:02.046Z,14.30
2018-07-11T05:17:30.147Z,14.30
2018-07-11T05:19:58.262Z,14.40
2018-07-11T05:22:26.387Z,14.50
2018-07-11T05:24:54.524Z,14.50
2018-07-11T05:27:22.768Z,14.60
2018-07-11T05:29:50.889Z,14.70
2018-07-11T05:32:18.998Z,14.70
2018-07-11T05:34:47.137Z,14.80
2018-07-11T05:37:15.247Z,14.80
2018-07-11T05:39:43.468Z,14.80
2018-07-11T05:44:39.521Z,14.80
2018-07-11T05:47:07.946Z,14.90
2018-07-11T05:49:36.096Z,15.00
2018-07-11T05:52:04.457Z,15.10
2018-07-11T05:54:33.726Z,15.30
2018-07-11T05:57:02.085Z,15.40
2018-07-11T05:59:30.719Z,15.60
2018-07-11T06:01:59.658Z,15.70
2018-07-11T06:04:27.845Z,15.80
2018-07-11T06:06:56.278Z,15.90
2018-07-11T06:09:24.420Z,16.00
2018-07-11T06:11:53.568Z,16.00
2018-07-11T06:14:21.750Z,16.00
2018-07-11T06:16:49.910Z,16.00
2018-07-11T06:19:18.367Z,15.90
2018-07-11T06:21:46.783Z,15.90
2018-07-11T06:24:15.146Z,16.00
2018-07-11T06:26:43.312Z,15.90
2018-07-11T06:29:11.427Z,16.00
2018-07-11T06:31:39.548Z,16.00
2018-07-11T06:34:08.294Z,16.10
2018-07-11T06:36:36.458Z,16.30
2018-07-11T06:39:04.842Z,16.40
2018-07-11T06:41:32.933Z,16.50
2018-07-11T06:44:01.093Z,16.60
2018-07-11T06:46:29.228Z,16.70
2018-07-11T06:48:57.428Z,16.70
2018-07-11T06:51:25.517Z,16.70
2018-07-11T06:53:53.882Z,16.90
2018-07-11T06:56:21.994Z,17.20
2018-07-11T06:58:50.094Z,17.50
2018-07-11T07:01:18.210Z,17.70
2018-07-11T07:03:46.377Z,17.90
2018-07-11T07:06:14.563Z,18.10
2018-07-11T07:08:42.660Z,18.20
2018-07-11T07:11:10.775Z,18.40
2018-07-11T07:13:39.010Z,18.60
2018-07-11T07:18:35.055Z,19.10
2018-07-11T07:21:03.179Z,19.20
2018-07-11T07:23:31.369Z,19.10
2018-07-11T07:25:59.582Z,19.20
2018-07-11T07:28:27.699Z,19.30
2018-07-11T07:30:55.828Z,19.50
2018-07-11T07:33:23.926Z,19.70
2018-07-11T07:35:52.039Z,20.00
2018-07-11T07:38:20.158Z,20.10
2018-07-11T07:40:48.560Z,20.20
2018-07-11T07:43:16.657Z,20.20
2018-07-11T07:45:45.664Z,20.30
2018-07-11T07:48:13.839Z,20.20
2018-07-11T07:50:41.950Z,20.10
2018-07-11T07:53:10.094Z,20.10
2018-07-11T07:55:38.242Z,20.20
2018-07-11T07:58:06.351Z,20.30
2018-07-11T08:00:35.473Z,20.30
2018-07-11T08:03:03.492Z,20.10
2018-07-11T08:05:31.611Z,20.10
2018-07-11T08:07:59.732Z,20.30
2018-07-11T08:10:28.276Z,20.40
2018-07-11T08:12:56.374Z,20.70
2018-07-11T08:15:24.494Z,20.90
2018-07-11T08:17:52.606Z,21.40
2018-07-11T08:20:20.735Z,21.90
2018-07-11T08:23:25.962Z,22.00
2018-07-11T08:26:06.530Z,22.20
2018-07-11T08:30:57.099Z,21.80
2018-07-11T08:33:34.040Z,21.50
2018-07-11T08:38:14.275Z,20.80
2018-07-11T08:40:55.528Z,20.40
2018-07-11T08:43:35.094Z,19.30
2018-07-11T08:46:14.799Z,19.00
2018-07-11T08:48:50.266Z,18.90
2018-07-11T08:53:35.325Z,19.10
2018-07-11T08:57:23.882Z,19.70
2018-07-11T09:00:02.251Z,22.00
2018-07-11T09:03:46.718Z,22.30
2018-07-11T09:06:30.332Z,21.90
2018-07-11T09:09:09.466Z,21.20
2018-07-11T09:11:50.522Z,20.70
2018-07-11T09:14:28.938Z,20.10
2018-07-11T09:17:43.126Z,19.60
2018-07-11T09:20:20.175Z,19.20
2018-07-11T09:23:08.398Z,19.20
2018-07-11T09:25:36.514Z,19.30
2018-07-11T09:28:04.654Z,19.50
2018-07-11T09:30:32.827Z,19.80
2018-07-11T09:33:00.862Z,20.20
2018-07-11T09:35:29.019Z,20.60
2018-07-11T09:37:57.127Z,21.20
2018-07-11T09:40:25.226Z,21.70
2018-07-11T09:42:53.346Z,22.30
2018-07-11T09:45:21.719Z,22.40
2018-07-11T09:47:51.000Z,22.40
2018-07-11T09:50:19.175Z,22.70
2018-07-11T09:52:47.278Z,23.00
2018-07-11T09:55:15.395Z,23.80
2018-07-11T09:57:43.500Z,24.70
2018-07-11T10:00:17.138Z,25.00
2018-07-11T10:02:45.351Z,24.60
2018-07-11T10:05:13.466Z,24.10
2018-07-11T10:07:41.591Z,23.80
2018-07-11T10:10:09.719Z,23.60
2018-07-11T10:12:37.907Z,23.20
2018-07-11T10:15:06.003Z,22.80
2018-07-11T10:17:34.714Z,22.50
2018-07-11T10:20:02.873Z,22.30
2018-07-11T10:22:30.994Z,22.30
2018-07-11T10:24:59.134Z,22.50
2018-07-11T10:27:27.258Z,23.10
2018-07-11T10:29:55.402Z,23.70
2018-07-11T10:32:23.553Z,23.90
2018-07-11T10:34:51.705Z,24.10
2018-07-11T10:37:19.847Z,24.50
2018-07-11T10:39:47.998Z,24.70
2018-07-11T10:42:16.123Z,24.80
2018-07-11T10:44:44.241Z,24.50
2018-07-11T10:47:13.802Z,24.30
2018-07-11T10:49:42.899Z,23.90
2018-07-11T10:52:11.018Z,23.40
2018-07-11T10:54:39.676Z,22.90
2018-07-11T10:59:35.706Z,22.20
2018-07-11T11:02:03.859Z,22.00
2018-07-11T11:04:31.982Z,21.90
2018-07-11T11:07:00.153Z,21.60
2018-07-11T11:09:28.302Z,21.50
2018-07-11T11:11:56.415Z,21.50
2018-07-11T11:14:24.546Z,21.50
2018-07-11T11:16:52.671Z,21.70
2018-07-11T11:19:20.830Z,21.80
2018-07-11T11:21:49.020Z,21.90
2018-07-11T11:24:17.144Z,22.00
2018-07-11T11:26:45.415Z,22.00
2018-07-11T11:29:13.567Z,22.10
2018-07-11T11:31:41.702Z,22.30
2018-07-11T11:34:09.895Z,22.50
2018-07-11T11:36:38.043Z,22.50
2018-07-11T11:39:06.198Z,22.60
2018-07-11T11:41:34.403Z,22.80
2018-07-11T11:44:03.031Z,23.20
2018-07-11T11:46:31.211Z,23.60
2018-07-11T11:48:59.362Z,24.20
2018-07-11T11:51:27.475Z,24.60
2018-07-11T11:53:55.580Z,24.40
2018-07-11T11:56:23.686Z,24.80
2018-07-11T11:58:51.794Z,25.20
2018-07-11T12:01:19.953Z,25.40
2018-07-11T12:03:48.129Z,25.60
2018-07-11T12:06:16.281Z,25.60
2018-07-11T12:08:44.700Z,25.30
2018-07-11T12:11:12.832Z,25.20
2018-07-11T12:13:41.847Z,25.00
2018-07-11T12:16:10.202Z,24.90
2018-07-11T12:18:38.406Z,24.90
2018-07-11T12:21:06.631Z,24.80
2018-07-11T12:23:34.897Z,24.90
2018-07-11T12:26:08.559Z,24.80
2018-07-11T12:28:36.836Z,24.90
2018-07-11T12:31:07.120Z,24.90
2018-07-11T12:33:35.665Z,25.00
2018-07-11T12:36:04.121Z,25.10
2018-07-11T12:38:33.108Z,24.90
2018-07-11T12:41:01.276Z,25.00
2018-07-11T12:43:29.590Z,24.90
2018-07-11T12:45:58.160Z,25.00
2018-07-11T12:48:31.709Z,25.00
2018-07-11T12:50:59.873Z,24.90
2018-07-11T12:53:28.586Z,24.60
2018-07-11T12:55:56.728Z,24.70
2018-07-11T12:58:25.005Z,24.70
2018-07-11T13:00:53.111Z,24.70
2018-07-11T13:03:21.255Z,24.70
2018-07-11T13:05:49.479Z,24.80
2018-07-11T13:08:18.264Z,25.00
2018-07-11T13:10:46.400Z,25.10
2018-07-11T13:13:14.589Z,25.10
2018-07-11T13:15:42.756Z,24.90
2018-07-11T13:18:10.910Z,24.70
2018-07-11T13:20:39.088Z,24.60
2018-07-11T13:23:07.245Z,24.60
2018-07-11T13:25:35.403Z,24.40
2018-07-11T13:28:03.577Z,24.30
2018-07-11T13:30:31.845Z,24.10
2018-07-11T13:32:59.988Z,24.10
2018-07-11T13:35:28.160Z,24.20
2018-07-11T13:37:56.304Z,24.50
2018-07-11T13:40:24.472Z,24.70
2018-07-11T13:42:52.619Z,25.60
2018-07-11T13:45:20.792Z,26.50
2018-07-11T13:47:53.174Z,27.30
2018-07-11T13:52:49.351Z,28.50
2018-07-11T13:55:17.539Z,28.60
2018-07-11T13:57:45.676Z,28.80
2018-07-11T14:00:13.909Z,28.70
2018-07-11T14:02:42.056Z,29.00
2018-07-11T14:05:10.246Z,28.90
2018-07-11T14:07:38.388Z,28.80
2018-07-11T14:10:06.920Z,27.90
2018-07-11T14:12:35.088Z,27.30
2018-07-11T14:15:03.256Z,26.80
2018-07-11T14:17:31.493Z,26.40
2018-07-11T14:22:27.580Z,25.50
2018-07-11T14:24:55.732Z,25.30
2018-07-11T14:27:26.538Z,25.00
2018-07-11T14:29:54.673Z,25.00
2018-07-11T14:32:25.040Z,25.10
2018-07-11T14:34:53.178Z,25.30
2018-07-11T14:37:21.663Z,26.10
2018-07-11T14:39:49.868Z,26.90
2018-07-11T14:42:18.529Z,28.00
2018-07-11T14:44:46.711Z,28.80
2018-07-11T14:47:20.352Z,29.60
2018-07-11T14:49:48.515Z,30.70
2018-07-11T14:52:16.653Z,30.70
2018-07-11T14:54:44.821Z,30.60
2018-07-11T14:57:13.114Z,31.00
2018-07-11T14:59:41.239Z,31.20
2018-07-11T15:02:09.381Z,31.00
2018-07-11T15:04:37.575Z,30.30
2018-07-11T15:07:05.900Z,29.90
2018-07-11T15:09:34.078Z,29.40
2018-07-11T15:12:02.288Z,29.40
2018-07-11T15:14:30.747Z,29.90
2018-07-11T15:16:58.962Z,29.40
2018-07-11T15:19:27.024Z,28.90
2018-07-11T15:21:55.212Z,28.20
2018-07-11T15:24:23.389Z,27.40
2018-07-11T15:26:51.593Z,26.50
2018-07-11T15:29:19.999Z,26.10
2018-07-11T15:31:48.177Z,25.70
2018-07-11T15:34:17.000Z,25.60
2018-07-11T15:36:45.193Z,26.00
2018-07-11T15:39:13.365Z,25.90
2018-07-11T15:41:41.551Z,25.80
2018-07-11T15:44:09.756Z,25.80
2018-07-11T15:46:37.986Z,26.10
2018-07-11T15:49:06.199Z,26.40
2018-07-11T15:51:34.384Z,26.40
2018-07-11T15:54:02.551Z,26.60
2018-07-11T15:56:30.904Z,26.90
2018-07-11T15:59:05.790Z,27.40
2018-07-11T16:01:37.213Z,28.20
2018-07-11T16:04:05.404Z,28.70
2018-07-11T16:06:33.566Z,29.40
2018-07-11T16:09:04.605Z,29.50
2018-07-11T16:11:32.850Z,29.80
2018-07-11T16:14:01.092Z,30.20
2018-07-11T16:16:29.247Z,30.20
2018-07-11T16:18:57.628Z,30.20
2018-07-11T16:21:25.839Z,30.30
2018-07-11T16:23:53.980Z,30.40
2018-07-11T16:26:22.324Z,30.70
2018-07-11T16:28:50.829Z,30.80
2018-07-11T16:31:18.967Z,30.80
2018-07-11T16:33:47.100Z,31.00
2018-07-11T16:36:15.881Z,31.00
2018-07-11T16:38:44.027Z,30.90
2018-07-11T16:41:12.155Z,30.20
2018-07-11T16:46:08.312Z,27.80
2018-07-11T16:48:36.816Z,26.80
2018-07-11T16:51:05.963Z,26.00
2018-07-11T16:53:34.132Z,25.50
2018-07-11T16:56:02.274Z,24.90
2018-07-11T16:58:34.773Z,24.70
2018-07-11T17:01:03.376Z,24.70
2018-07-11T17:03:34.840Z,24.40
2018-07-11T17:08:36.221Z,23.50
2018-07-11T17:11:13.161Z,23.50
2018-07-11T17:13:59.853Z,23.60
2018-07-11T17:16:42.112Z,23.80
2018-07-11T17:19:13.381Z,23.40
2018-07-11T17:21:46.472Z,23.00
2018-07-11T17:24:18.831Z,22.50
2018-07-11T17:26:48.316Z,22.10
2018-07-11T17:29:25.437Z,21.80
2018-07-11T17:31:59.432Z,21.50
2018-07-11T17:34:27.648Z,21.30
2018-07-11T17:36:58.385Z,21.30
2018-07-11T17:39:30.213Z,21.20
2018-07-11T17:41:58.404Z,21.10
2018-07-11T17:44:27.041Z,20.90
2018-07-11T17:46:55.801Z,20.70
2018-07-11T17:52:01.895Z,20.50
2018-07-11T17:54:41.888Z,20.30
2018-07-11T17:57:12.604Z,20.10
2018-07-11T17:59:46.262Z,20.00
2018-07-11T18:02:20.628Z,19.80
2018-07-11T18:05:04.390Z,19.50
2018-07-11T18:07:44.264Z,19.30
2018-07-11T18:10:30.781Z,19.20
2018-07-11T18:13:37.147Z,19.10
2018-07-11T18:17:12.970Z,19.00
2018-07-11T18:19:50.777Z,18.80
2018-07-11T18:22:30.419Z,18.60
2018-07-11T18:25:06.592Z,18.40
2018-07-11T18:28:11.676Z,18.30
2018-07-11T18:31:56.833Z,18.20
2018-07-11T18:35:35.836Z,18.00
2018-07-11T18:40:48.918Z,17.50
2018-07-11T18:43:45.728Z,17.40
2018-07-11T18:46:56.340Z,17.30
2018-07-11T18:49:35.168Z,17.10
2018-07-11T18:52:24.180Z,17.00
2018-07-11T18:57:30.929Z,16.70
2018-07-11T19:00:10.149Z,16.70
2018-07-11T19:02:46.670Z,16.50
2018-07-11T19:05:53.425Z,16.40
2018-07-11T19:08:25.663Z,16.40
2018-07-11T19:11:35.227Z,16.30
2018-07-11T19:14:08.533Z,16.20
2018-07-11T19:18:54.867Z,16.10
2018-07-11T19:21:31.260Z,16.10
2018-07-11T19:24:04.311Z,16.00
2018-07-11T19:26:44.474Z,16.00
2018-07-11T19:29:23.606Z,15.90
2018-07-11T19:34:09.674Z,15.80
2018-07-11T19:40:20.260Z,15.60
2018-07-11T19:45:02.953Z,15.50
2018-07-11T19:47:41.002Z,15.40
2018-07-11T19:50:17.740Z,15.20
2018-07-11T19:52:52.448Z,15.00
2018-07-11T19:55:34.764Z,14.90
2018-07-11T19:58:03.203Z,14.80
2018-07-11T20:00:31.537Z,14.60
2018-07-11T20:02:59.768Z,14.60
2018-07-11T20:05:28.035Z,14.50
2018-07-11T20:07:56.322Z,14.40
2018-07-11T20:10:24.500Z,14.30
2018-07-11T20:12:52.717Z,14.20
2018-07-11T20:15:20.981Z,14.20
2018-07-11T20:17:49.111Z,14.10
2018-07-11T20:20:17.274Z,14.10
2018-07-11T20:22:45.496Z,14.00
2018-07-11T20:25:13.769Z,13.90
2018-07-11T20:27:41.974Z,13.90
2018-07-11T20:30:10.305Z,13.80
2018-07-11T20:32:38.494Z,13.80
2018-07-11T20:35:06.693Z,13.80
2018-07-11T20:37:35.389Z,13.80
2018-07-11T20:40:03.587Z,13.70
2018-07-11T20:42:31.832Z,13.70
2018-07-11T20:45:00.049Z,13.70
2018-07-11T20:47:28.217Z,13.70
2018-07-11T20:49:56.408Z,13.60
2018-07-11T20:52:24.584Z,13.60
2018-07-11T20:54:52.759Z,13.60
2018-07-11T20:57:20.965Z,13.50
2018-07-11T21:00:00.525Z,13.50
2018-07-11T21:02:40.185Z,13.50
2018-07-11T21:06:49.349Z,13.50
2018-07-11T21:10:28.671Z,13.50
2018-07-11T21:15:12.763Z,13.60
2018-07-11T21:18:52.128Z,13.70
2018-07-11T21:21:20.428Z,13.70
2018-07-11T21:23:48.572Z,13.80
2018-07-11T21:26:16.889Z,13.80
2018-07-11T21:28:45.056Z,13.80
2018-07-11T21:31:13.221Z,13.80
2018-07-11T21:33:41.368Z,13.80
2018-07-11T21:36:09.533Z,13.90
2018-07-11T21:38:37.708Z,13.90
2018-07-11T21:41:05.888Z,13.90
2018-07-11T21:43:34.055Z,13.80
2018-07-11T21:46:02.578Z,13.90
2018-07-11T21:48:30.762Z,13.90
2018-07-11T21:50:58.920Z,13.90
2018-07-11T21:53:27.091Z,13.90
2018-07-11T21:55:55.244Z,13.90
2018-07-11T21:58:23.453Z,13.80
2018-07-11T22:00:51.645Z,13.70
2018-07-11T22:03:19.790Z,13.70
2018-07-11T22:05:47.991Z,13.60
2018-07-11T22:08:16.154Z,13.50
2018-07-11T22:10:44.325Z,13.40
2018-07-11T22:13:12.545Z,13.20
2018-07-11T22:15:40.720Z,13.20
2018-07-11T22:18:20.253Z,13.00
2018-07-11T22:20:47.440Z,12.90
2018-07-11T22:23:14.652Z,12.80
2018-07-11T22:25:41.853Z,12.70
2018-07-11T22:28:09.114Z,12.70
2018-07-11T22:30:36.301Z,12.60
2018-07-11T22:33:03.505Z,12.50
2018-07-11T22:35:30.711Z,12.40
2018-07-11T22:37:57.916Z,12.40
2018-07-11T22:40:25.104Z,12.30
2018-07-11T22:45:19.785Z,12.20
2018-07-11T22:47:46.976Z,12.20
2018-07-11T22:50:14.170Z,12.20
2018-07-11T22:52:41.354Z,12.20
2018-07-11T22:55:08.575Z,12.10
2018-07-11T22:57:35.754Z,12.10
2018-07-11T23:00:02.979Z,12.00
2018-07-11T23:02:30.155Z,12.00
2018-07-11T23:04:57.332Z,11.90
2018-07-11T23:07:24.533Z,11.90
2018-07-11T23:09:51.732Z,11.80
2018-07-11T23:12:18.904Z,11.80
2018-07-11T23:14:46.104Z,11.80
2018-07-11T23:17:13.288Z,11.80
2018-07-11T23:19:40.504Z,11.70
2018-07-11T23:22:08.333Z,11.80
2018-07-11T23:24:35.522Z,11.80
2018-07-11T23:27:02.717Z,11.90
2018-07-11T23:29:29.900Z,11.90
2018-07-11T23:31:57.076Z,12.00
2018-07-11T23:34:24.256Z,12.10
2018-07-11T23:36:51.464Z,12.20
2018-07-11T23:39:18.660Z,12.30
2018-07-11T23:41:45.828Z,12.40
2018-07-11T23:44:13.019Z,12.50
2018-07-11T23:46:40.208Z,12.60
2018-07-11T23:49:07.407Z,12.60
2018-07-11T23:51:34.606Z,12.70
2018-07-11T23:54:01.812Z,12.70
2018-07-11T23:56:28.993Z,12.80
2018-07-11T23:58:56.169Z,12.80
